createdAt,value
2022-12-04T00:01:14.383Z,88.11
2022-12-04T00:03:42.270Z,88.09
2022-12-04T00:06:11.813Z,87.61
2022-12-04T00:08:40.386Z,87.86
2022-12-04T00:11:11.591Z,87.77
2022-12-04T00:13:39.917Z,87.89
2022-12-04T00:16:09.611Z,87.50
2022-12-04T00:18:37.502Z,87.66
2022-12-04T00:21:06.168Z,87.93
2022-12-04T00:23:34.796Z,87.96
2022-12-04T00:26:03.258Z,87.95
2022-12-04T00:28:32.903Z,87.84
2022-12-04T00:31:00.794Z,87.89
2022-12-04T00:33:28.576Z,87.85
2022-12-04T00:36:00.346Z,88.20
2022-12-04T00:38:28.822Z,87.96
2022-12-04T00:40:56.833Z,87.89
2022-12-04T00:43:25.182Z,87.50
2022-12-04T00:45:54.388Z,87.41
2022-12-04T00:48:22.308Z,87.63
2022-12-04T00:50:50.225Z,87.95
2022-12-04T00:53:18.109Z,88.00
2022-12-04T00:55:45.894Z,87.52
2022-12-04T00:58:14.189Z,87.91
2022-12-04T01:00:43.605Z,88.03
2022-12-04T01:03:13.007Z,87.81
2022-12-04T01:05:41.324Z,87.51
2022-12-04T01:08:09.647Z,87.49
2022-12-04T01:10:39.596Z,87.97
2022-12-04T01:13:07.455Z,88.02
2022-12-04T01:15:38.904Z,87.97
2022-12-04T01:18:06.785Z,88.19
2022-12-04T01:20:35.898Z,88.28
2022-12-04T01:23:03.795Z,88.25
2022-12-04T01:25:31.595Z,88.39
2022-12-04T01:27:59.425Z,88.20
2022-12-04T01:30:27.166Z,88.49
2022-12-04T01:32:54.985Z,88.31
2022-12-04T01:35:22.780Z,88.38
2022-12-04T01:37:51.881Z,88.45
2022-12-04T01:40:19.638Z,88.29
2022-12-04T01:42:47.405Z,88.23
2022-12-04T01:45:41.165Z,88.62
2022-12-04T01:48:16.026Z,88.39
2022-12-04T01:50:45.150Z,87.90
2022-12-04T01:53:15.071Z,88.52
2022-12-04T01:55:44.639Z,88.36
2022-12-04T01:58:12.590Z,88.49
2022-12-04T02:00:40.853Z,88.33
2022-12-04T02:03:08.819Z,88.47
2022-12-04T02:05:36.689Z,88.59
2022-12-04T02:08:05.878Z,88.42
2022-12-04T02:10:47.999Z,88.18
2022-12-04T02:13:21.779Z,88.26
2022-12-04T02:15:54.728Z,88.22
2022-12-04T02:18:31.187Z,88.23
2022-12-04T02:21:03.350Z,88.37
2022-12-04T02:24:01.246Z,88.00
2022-12-04T02:26:43.556Z,87.00
2022-12-04T02:29:22.702Z,86.96
2022-12-04T02:31:56.680Z,87.18
2022-12-04T02:34:29.229Z,87.37
2022-12-04T02:37:01.763Z,87.28
2022-12-04T02:39:35.642Z,87.30
2022-12-04T02:42:11.400Z,87.25
2022-12-04T02:44:45.349Z,87.51
2022-12-04T02:47:17.320Z,87.48
2022-12-04T02:49:48.049Z,87.83
2022-12-04T02:52:19.538Z,87.91
2022-12-04T02:54:51.486Z,87.57
2022-12-04T02:57:23.067Z,87.95
2022-12-04T02:59:54.856Z,88.07
2022-12-04T03:02:28.483Z,88.08
2022-12-04T03:04:59.089Z,88.12
2022-12-04T03:07:32.117Z,88.06
2022-12-04T03:10:03.789Z,88.18
2022-12-04T03:12:40.949Z,88.06
2022-12-04T03:15:17.333Z,87.79
2022-12-04T03:17:56.254Z,87.62
2022-12-04T03:20:25.073Z,87.73
2022-12-04T03:22:57.616Z,87.49
2022-12-04T03:25:33.150Z,87.31
2022-12-04T03:28:05.061Z,87.20
2022-12-04T03:30:40.355Z,87.33
2022-12-04T03:33:13.164Z,86.79
2022-12-04T03:35:45.960Z,86.89
2022-12-04T03:38:19.673Z,86.74
2022-12-04T03:40:55.199Z,86.69
2022-12-04T03:43:29.822Z,86.77
2022-12-04T03:46:05.186Z,86.99
2022-12-04T03:48:41.964Z,87.03
2022-12-04T03:51:16.161Z,87.01
2022-12-04T03:53:50.576Z,86.59
2022-12-04T03:56:20.058Z,86.92
2022-12-04T03:58:54.880Z,86.22
2022-12-04T04:01:29.251Z,85.53
2022-12-04T04:04:00.946Z,84.84
2022-12-04T04:06:33.530Z,84.61
2022-12-04T04:09:08.698Z,84.83
2022-12-04T04:11:41.439Z,84.61
2022-12-04T04:14:33.199Z,84.74
2022-12-04T04:17:23.627Z,84.71
2022-12-04T04:20:14.084Z,84.37
2022-12-04T04:22:59.511Z,84.68
2022-12-04T04:25:28.920Z,84.45
2022-12-04T04:27:58.797Z,84.31
2022-12-04T04:30:28.403Z,84.56
2022-12-04T04:33:04.968Z,84.27
2022-12-04T04:35:42.660Z,84.45
2022-12-04T04:38:17.552Z,84.15
2022-12-04T04:40:53.380Z,84.34
2022-12-04T04:43:26.094Z,84.34
2022-12-04T04:45:57.706Z,84.36
2022-12-04T04:48:30.366Z,84.59
2022-12-04T04:51:01.175Z,84.30
2022-12-04T04:53:34.618Z,84.43
2022-12-04T04:56:03.520Z,84.55
2022-12-04T04:58:31.341Z,84.88
2022-12-04T05:01:01.597Z,88.10
2022-12-04T05:03:31.290Z,89.11
2022-12-04T05:05:59.081Z,84.80
2022-12-04T05:08:26.928Z,86.95
2022-12-04T05:10:54.685Z,84.82
2022-12-04T05:13:22.984Z,85.10
2022-12-04T05:15:58.343Z,84.24
2022-12-04T05:18:26.467Z,84.29
2022-12-04T05:20:54.998Z,85.67
2022-12-04T05:23:23.203Z,84.96
2022-12-04T05:25:51.086Z,84.47
2022-12-04T05:28:18.847Z,83.30
2022-12-04T05:30:46.780Z,84.45
2022-12-04T05:33:14.679Z,84.91
2022-12-04T05:35:42.448Z,81.84
2022-12-04T05:38:11.599Z,80.73
2022-12-04T05:40:39.389Z,82.51
2022-12-04T05:43:07.129Z,81.89
2022-12-04T05:45:34.892Z,82.09
2022-12-04T05:48:02.637Z,81.05
2022-12-04T05:50:30.371Z,81.60
2022-12-04T05:52:58.384Z,82.57
2022-12-04T05:55:27.506Z,83.82
2022-12-04T05:57:55.243Z,82.24
2022-12-04T06:00:23.215Z,81.76
2022-12-04T06:02:51.010Z,81.74
2022-12-04T06:05:18.975Z,83.53
2022-12-04T06:07:46.781Z,83.46
2022-12-04T06:10:14.688Z,82.89
2022-12-04T06:12:43.791Z,82.68
2022-12-04T06:15:12.131Z,82.40
2022-12-04T06:17:39.886Z,82.91
2022-12-04T06:20:11.685Z,81.44
2022-12-04T06:22:39.890Z,84.10
2022-12-04T06:25:08.949Z,83.22
2022-12-04T06:27:36.671Z,81.55
2022-12-04T06:30:06.937Z,81.25
2022-12-04T06:32:34.738Z,81.63
2022-12-04T06:35:02.943Z,83.23
2022-12-04T06:37:30.868Z,81.33
2022-12-04T06:39:58.925Z,82.51
2022-12-04T06:42:26.967Z,81.63
2022-12-04T06:44:54.772Z,81.86
2022-12-04T06:47:23.851Z,82.37
2022-12-04T06:49:52.300Z,81.94
2022-12-04T06:52:20.076Z,82.78
2022-12-04T06:54:47.865Z,85.16
2022-12-04T06:57:15.605Z,82.38
2022-12-04T06:59:43.424Z,81.60
2022-12-04T07:02:11.887Z,81.58
2022-12-04T07:04:41.285Z,80.12
2022-12-04T07:07:12.033Z,81.97
2022-12-04T07:09:39.807Z,77.71
2022-12-04T07:12:07.964Z,81.39
2022-12-04T07:14:35.803Z,81.65
2022-12-04T07:17:03.624Z,81.38
2022-12-04T07:19:31.483Z,82.98
2022-12-04T07:22:00.605Z,81.10
2022-12-04T07:24:28.387Z,80.04
2022-12-04T07:26:56.189Z,81.61
2022-12-04T07:29:23.959Z,81.52
2022-12-04T07:31:51.815Z,80.83
2022-12-04T07:34:19.690Z,80.69
2022-12-04T07:36:47.507Z,83.23
2022-12-04T07:39:16.665Z,83.55
2022-12-04T07:41:44.412Z,82.27
2022-12-04T07:44:14.877Z,80.83
2022-12-04T07:46:42.672Z,80.85
2022-12-04T07:49:12.741Z,81.80
2022-12-04T07:51:40.537Z,81.27
2022-12-04T07:54:09.315Z,81.64
2022-12-04T07:56:38.448Z,82.18
2022-12-04T07:59:06.200Z,82.81
2022-12-04T08:01:34.285Z,83.09
2022-12-04T08:04:03.261Z,82.98
2022-12-04T08:06:37.213Z,83.48
2022-12-04T08:09:09.832Z,83.06
2022-12-04T08:11:39.781Z,82.58
2022-12-04T08:14:08.764Z,84.09
2022-12-04T08:16:36.608Z,84.31
2022-12-04T08:19:05.425Z,83.07
2022-12-04T08:21:34.529Z,83.80
2022-12-04T08:24:02.938Z,82.98
2022-12-04T08:26:32.268Z,84.32
2022-12-04T08:29:02.345Z,82.77
2022-12-04T08:31:32.928Z,83.62
2022-12-04T08:34:03.282Z,82.62
2022-12-04T08:36:31.102Z,82.83
2022-12-04T08:38:59.322Z,82.97
2022-12-04T08:41:27.993Z,83.04
2022-12-04T08:43:57.767Z,83.13
2022-12-04T08:46:28.326Z,83.11
2022-12-04T08:48:56.868Z,83.16
2022-12-04T08:51:26.334Z,81.82
2022-12-04T08:53:54.524Z,82.45
2022-12-04T08:56:22.552Z,82.31
2022-12-04T08:58:50.506Z,81.59
2022-12-04T09:01:18.777Z,80.96
2022-12-04T09:03:48.078Z,83.38
2022-12-04T09:06:16.776Z,82.61
2022-12-04T09:08:44.616Z,82.87
2022-12-04T09:11:14.475Z,82.57
2022-12-04T09:13:43.225Z,83.13
2022-12-04T09:16:14.291Z,83.34
2022-12-04T09:18:42.251Z,83.41
2022-12-04T09:21:13.141Z,83.06
2022-12-04T09:23:41.173Z,82.82
2022-12-04T09:26:21.592Z,83.58
2022-12-04T09:28:49.865Z,83.16
2022-12-04T09:31:18.700Z,83.57
2022-12-04T09:33:46.741Z,84.28
2022-12-04T09:36:16.951Z,82.69
2022-12-04T09:38:45.809Z,82.95
2022-12-04T09:41:28.722Z,83.23
2022-12-04T09:43:59.550Z,83.49
2022-12-04T09:46:32.499Z,83.73
2022-12-04T09:49:08.776Z,82.74
2022-12-04T09:51:45.190Z,83.07
2022-12-04T09:54:19.135Z,83.25
2022-12-04T09:56:56.491Z,83.36
2022-12-04T09:59:27.758Z,83.69
2022-12-04T10:02:00.868Z,83.80
2022-12-04T10:04:28.813Z,83.50
2022-12-04T10:07:03.296Z,83.69
2022-12-04T10:09:40.202Z,83.53
2022-12-04T10:12:16.038Z,83.94
2022-12-04T10:14:55.323Z,84.00
2022-12-04T10:17:37.868Z,83.77
2022-12-04T10:20:18.347Z,83.31
2022-12-04T10:22:59.625Z,83.92
2022-12-04T10:25:28.073Z,83.28
2022-12-04T10:28:01.020Z,82.69
2022-12-04T10:30:31.980Z,82.64
2022-12-04T10:33:05.499Z,82.83
2022-12-04T10:35:36.315Z,83.08
2022-12-04T10:38:12.259Z,83.12
2022-12-04T10:40:50.503Z,82.66
2022-12-04T10:43:28.648Z,83.21
2022-12-04T10:45:56.458Z,83.15
2022-12-04T10:48:27.538Z,82.56
2022-12-04T10:50:55.331Z,82.75
2022-12-04T10:53:30.886Z,82.14
2022-12-04T10:56:10.360Z,82.80
2022-12-04T10:58:38.420Z,83.23
2022-12-04T11:01:08.173Z,83.16
2022-12-04T11:03:36.544Z,83.86
2022-12-04T11:06:06.529Z,82.56
2022-12-04T11:08:39.605Z,82.76
2022-12-04T11:11:11.251Z,82.89
2022-12-04T11:13:39.941Z,83.61
2022-12-04T11:16:08.657Z,82.48
2022-12-04T11:18:49.102Z,81.83
2022-12-04T11:21:20.048Z,83.45
2022-12-04T11:23:51.268Z,83.17
2022-12-04T11:26:30.064Z,83.28
2022-12-04T11:29:01.799Z,82.61
2022-12-04T11:31:30.524Z,84.03
2022-12-04T11:34:01.319Z,84.04
2022-12-04T11:36:31.707Z,84.46
2022-12-04T11:39:08.952Z,84.82
2022-12-04T11:41:36.759Z,85.02
2022-12-04T11:44:06.808Z,85.03
2022-12-04T11:46:35.504Z,85.13
2022-12-04T11:49:04.048Z,84.99
2022-12-04T11:51:47.870Z,85.48
2022-12-04T11:54:29.074Z,85.40
2022-12-04T11:57:07.892Z,85.64
2022-12-04T11:59:49.628Z,85.74
2022-12-04T12:02:43.379Z,86.07
2022-12-04T12:05:25.150Z,85.94
2022-12-04T12:08:02.456Z,85.74
2022-12-04T12:10:44.239Z,86.05
2022-12-04T12:13:23.354Z,85.57
2022-12-04T12:16:08.299Z,85.57
2022-12-04T12:18:55.345Z,85.93
2022-12-04T12:21:27.050Z,85.96
2022-12-04T12:24:14.636Z,86.43
2022-12-04T12:26:50.535Z,86.00
2022-12-04T12:29:34.882Z,85.91
2022-12-04T12:32:17.102Z,86.38
2022-12-04T12:34:47.236Z,85.90
2022-12-04T12:37:23.608Z,86.21
2022-12-04T12:39:59.708Z,86.14
2022-12-04T12:42:33.758Z,86.35
2022-12-04T12:45:07.564Z,86.39
2022-12-04T12:47:42.232Z,86.58
2022-12-04T12:50:16.190Z,86.93
2022-12-04T12:52:48.747Z,86.59
2022-12-04T12:55:20.985Z,86.22
2022-12-04T12:57:57.781Z,86.25
2022-12-04T13:00:26.537Z,86.38
2022-12-04T13:02:59.389Z,86.44
2022-12-04T13:05:31.359Z,86.21
2022-12-04T13:08:07.205Z,86.24
2022-12-04T13:10:41.209Z,86.32
2022-12-04T13:13:16.571Z,86.55
2022-12-04T13:15:48.824Z,86.65
2022-12-04T13:18:25.271Z,86.31
2022-12-04T13:20:56.132Z,86.18
2022-12-04T13:23:45.962Z,86.09
2022-12-04T13:26:23.930Z,85.96
2022-12-04T13:28:58.740Z,85.94
2022-12-04T13:31:34.524Z,86.54
2022-12-04T13:34:39.037Z,86.56
2022-12-04T13:37:33.868Z,86.65
2022-12-04T13:40:31.998Z,86.32
2022-12-04T13:43:21.613Z,86.73
2022-12-04T13:45:53.362Z,87.01
2022-12-04T13:48:29.897Z,87.18
2022-12-04T13:51:37.167Z,87.30
2022-12-04T13:54:22.754Z,87.47
2022-12-04T13:56:52.522Z,87.34
2022-12-04T13:59:23.868Z,87.25
2022-12-04T14:01:55.584Z,87.02
2022-12-04T14:04:26.390Z,87.12
2022-12-04T14:06:57.114Z,87.13
2022-12-04T14:09:28.397Z,87.13
2022-12-04T14:12:01.404Z,86.90
2022-12-04T14:14:31.398Z,86.72
2022-12-04T14:17:01.095Z,86.61
2022-12-04T14:19:34.537Z,86.30
2022-12-04T14:22:02.933Z,86.61
2022-12-04T14:24:34.967Z,86.93
2022-12-04T14:27:11.522Z,86.74
2022-12-04T14:29:48.621Z,86.60
2022-12-04T14:32:22.481Z,86.60
2022-12-04T14:34:51.299Z,87.08
2022-12-04T14:37:25.376Z,87.10
2022-12-04T14:39:53.998Z,87.29
2022-12-04T14:42:25.399Z,87.12
2022-12-04T14:44:56.756Z,86.99
2022-12-04T14:47:39.853Z,87.17
2022-12-04T14:50:21.668Z,87.24
2022-12-04T14:52:55.637Z,87.35
2022-12-04T14:55:32.881Z,87.41
2022-12-04T14:58:22.076Z,87.33
2022-12-04T15:00:54.287Z,87.66
2022-12-04T15:03:24.789Z,87.68
2022-12-04T15:05:53.725Z,87.77
2022-12-04T15:08:21.744Z,87.76
2022-12-04T15:11:09.100Z,87.42
2022-12-04T15:13:38.420Z,87.63
2022-12-04T15:16:09.585Z,87.74
2022-12-04T15:18:39.767Z,87.67
2022-12-04T15:21:11.491Z,87.81
2022-12-04T15:23:42.416Z,87.86
2022-12-04T15:26:13.875Z,87.41
2022-12-04T15:28:46.352Z,87.87
2022-12-04T15:31:18.385Z,87.90
2022-12-04T15:33:49.768Z,87.90
2022-12-04T15:36:21.037Z,87.71
2022-12-04T15:38:50.413Z,87.87
2022-12-04T15:41:31.551Z,87.91
2022-12-04T15:43:59.867Z,88.14
2022-12-04T15:46:33.375Z,88.16
2022-12-04T15:49:17.749Z,88.17
2022-12-04T15:51:46.854Z,88.25
2022-12-04T15:54:19.548Z,88.31
2022-12-04T15:56:58.483Z,88.33
2022-12-04T15:59:28.122Z,88.45
2022-12-04T16:01:56.534Z,88.47
2022-12-04T16:04:35.384Z,88.38
2022-12-04T16:07:03.364Z,88.53
2022-12-04T16:09:32.150Z,88.44
2022-12-04T16:12:02.217Z,88.55
2022-12-04T16:14:30.429Z,88.39
2022-12-04T16:17:05.919Z,88.46
2022-12-04T16:19:37.367Z,88.54
2022-12-04T16:22:12.043Z,88.61
2022-12-04T16:24:39.888Z,88.68
2022-12-04T16:27:12.536Z,88.56
2022-12-04T16:29:41.050Z,88.58
2022-12-04T16:32:12.280Z,88.90
2022-12-04T16:34:41.564Z,88.56
2022-12-04T16:37:12.207Z,88.51
2022-12-04T16:39:41.563Z,88.65
2022-12-04T16:42:16.167Z,88.85
2022-12-04T16:44:44.051Z,88.96
2022-12-04T16:47:13.341Z,88.74
2022-12-04T16:49:42.733Z,89.04
2022-12-04T16:52:10.649Z,88.86
2022-12-04T16:54:39.693Z,89.01
2022-12-04T16:57:07.550Z,89.00
2022-12-04T16:59:35.685Z,89.06
2022-12-04T17:02:05.362Z,89.06
2022-12-04T17:04:33.205Z,88.54
2022-12-04T17:07:02.321Z,88.68
2022-12-04T17:09:30.168Z,88.33
2022-12-04T17:11:57.953Z,88.46
2022-12-04T17:14:25.739Z,88.44
2022-12-04T17:16:54.890Z,88.45
2022-12-04T17:19:22.694Z,88.36
2022-12-04T17:21:50.532Z,88.35
2022-12-04T17:24:19.654Z,88.45
2022-12-04T17:26:47.408Z,88.33
2022-12-04T17:29:15.170Z,88.44
2022-12-04T17:31:43.032Z,88.61
2022-12-04T17:34:10.864Z,88.38
2022-12-04T17:36:38.663Z,88.52
2022-12-04T17:39:08.010Z,88.69
2022-12-04T17:41:36.995Z,88.58
2022-12-04T17:44:04.868Z,88.43
2022-12-04T17:46:32.763Z,88.34
2022-12-04T17:49:05.453Z,88.46
2022-12-04T17:51:35.746Z,88.30
2022-12-04T17:54:03.581Z,88.32
2022-12-04T17:56:31.448Z,88.43
2022-12-04T17:59:00.570Z,88.38
2022-12-04T18:01:30.403Z,88.34
2022-12-04T18:03:59.742Z,88.35
2022-12-04T18:06:29.141Z,88.43
2022-12-04T18:08:57.370Z,88.38
2022-12-04T18:11:27.877Z,88.30
2022-12-04T18:13:58.082Z,88.53
2022-12-04T18:16:28.368Z,88.41
2022-12-04T18:18:56.813Z,88.33
2022-12-04T18:21:25.131Z,88.39
2022-12-04T18:23:53.529Z,88.40
2022-12-04T18:26:23.094Z,88.43
2022-12-04T18:28:52.795Z,88.41
2022-12-04T18:31:20.814Z,88.47
2022-12-04T18:33:51.525Z,88.45
2022-12-04T18:36:21.435Z,88.55
2022-12-04T18:38:54.799Z,88.46
2022-12-04T18:41:22.716Z,88.44
2022-12-04T18:43:51.151Z,88.52
2022-12-04T18:46:19.669Z,88.56
2022-12-04T18:48:48.695Z,88.48
2022-12-04T18:51:21.544Z,88.52
2022-12-04T18:53:52.339Z,88.67
2022-12-04T18:56:20.227Z,88.77
2022-12-04T18:58:48.570Z,88.63
2022-12-04T19:01:19.325Z,88.65
2022-12-04T19:03:48.134Z,88.88
2022-12-04T19:06:16.556Z,88.95
2022-12-04T19:08:45.774Z,89.18
2022-12-04T19:11:15.380Z,89.23
2022-12-04T19:13:43.711Z,89.26
2022-12-04T19:16:12.955Z,89.43
2022-12-04T19:18:42.039Z,89.52
2022-12-04T19:21:10.191Z,89.54
2022-12-04T19:23:38.324Z,89.59
2022-12-04T19:26:07.591Z,89.80
2022-12-04T19:28:35.517Z,89.87
2022-12-04T19:31:03.440Z,89.88
2022-12-04T19:33:31.238Z,90.02
2022-12-04T19:36:00.893Z,90.26
2022-12-04T19:38:28.959Z,90.25
2022-12-04T19:41:05.075Z,90.42
2022-12-04T19:43:34.283Z,90.62
2022-12-04T19:46:02.423Z,90.77
2022-12-04T19:48:30.252Z,90.94
2022-12-04T19:51:03.243Z,90.96
2022-12-04T19:53:33.060Z,91.12
2022-12-04T19:56:05.543Z,91.40
2022-12-04T19:58:35.764Z,91.63
2022-12-04T20:01:04.268Z,92.05
2022-12-04T20:03:32.767Z,92.08
2022-12-04T20:06:03.337Z,92.23
2022-12-04T20:08:31.294Z,92.49
2022-12-04T20:11:03.734Z,92.61
2022-12-04T20:13:31.576Z,92.95
2022-12-04T20:16:04.080Z,93.17
2022-12-04T20:18:32.456Z,93.44
2022-12-04T20:21:02.065Z,93.42
2022-12-04T20:23:30.137Z,93.29
2022-12-04T20:25:57.954Z,93.66
2022-12-04T20:28:25.776Z,93.73
2022-12-04T20:30:54.360Z,93.98
2022-12-04T20:33:23.595Z,94.10
2022-12-04T20:36:25.489Z,94.18
2022-12-04T20:38:55.272Z,94.29
2022-12-04T20:41:23.368Z,94.37
2022-12-04T20:43:51.494Z,94.13
2022-12-04T20:46:21.849Z,94.19
2022-12-04T20:48:53.347Z,94.22
2022-12-04T20:51:23.308Z,94.12
2022-12-04T20:53:52.246Z,93.94
2022-12-04T20:56:21.879Z,93.96
2022-12-04T20:58:49.694Z,93.84
2022-12-04T21:01:19.508Z,93.95
2022-12-04T21:03:48.324Z,94.06
2022-12-04T21:06:20.049Z,93.87
2022-12-04T21:08:54.022Z,93.95
2022-12-04T21:11:22.012Z,93.97
2022-12-04T21:14:07.412Z,94.03
2022-12-04T21:16:35.599Z,93.95
2022-12-04T21:19:03.717Z,93.91
2022-12-04T21:21:32.877Z,93.97
2022-12-04T21:24:00.769Z,93.73
2022-12-04T21:26:30.971Z,93.72
2022-12-04T21:28:59.446Z,93.61
2022-12-04T21:31:28.810Z,93.46
2022-12-04T21:33:57.963Z,93.57
2022-12-04T21:36:26.684Z,93.48
2022-12-04T21:38:56.190Z,93.08
2022-12-04T21:41:42.076Z,93.21
2022-12-04T21:44:11.394Z,93.25
2022-12-04T21:46:39.220Z,93.42
2022-12-04T21:49:07.263Z,93.29
2022-12-04T21:54:24.672Z,92.78
2022-12-04T21:56:52.477Z,93.38
2022-12-04T21:59:20.401Z,93.24
2022-12-04T22:01:48.300Z,93.15
2022-12-04T22:04:16.429Z,93.29
2022-12-04T22:06:44.418Z,93.29
2022-12-04T22:09:13.214Z,92.99
2022-12-04T22:11:42.818Z,93.07
2022-12-04T22:14:11.703Z,93.37
2022-12-04T22:16:42.457Z,93.37
2022-12-04T22:19:12.050Z,93.65
2022-12-04T22:21:40.430Z,93.61
2022-12-04T22:24:10.398Z,93.59
2022-12-04T22:26:39.104Z,93.75
2022-12-04T22:29:34.304Z,93.82
2022-12-04T22:31:56.036Z,93.73
2022-12-04T22:34:23.903Z,93.94
2022-12-04T22:36:51.669Z,94.06
2022-12-04T22:39:19.430Z,93.97
2022-12-04T22:41:47.195Z,94.24
2022-12-04T22:44:16.273Z,94.07
2022-12-04T22:46:44.169Z,94.25
2022-12-04T22:49:12.016Z,94.21
2022-12-04T22:51:39.785Z,94.32
2022-12-04T22:54:08.114Z,94.39
2022-12-04T22:56:35.976Z,94.23
2022-12-04T22:59:03.806Z,94.07
2022-12-04T23:01:34.444Z,93.91
2022-12-04T23:04:03.331Z,94.07
2022-12-04T23:06:33.239Z,94.02
2022-12-04T23:09:02.686Z,94.01
2022-12-04T23:11:30.551Z,94.07
2022-12-04T23:14:00.943Z,94.32
2022-12-04T23:16:31.552Z,94.34
2022-12-04T23:19:01.012Z,94.31
2022-12-04T23:21:29.445Z,94.42
2022-12-04T23:23:58.016Z,94.54
2022-12-04T23:26:27.642Z,94.56
2022-12-04T23:28:56.102Z,94.80
2022-12-04T23:31:24.663Z,94.64
2022-12-04T23:33:52.580Z,94.61
2022-12-04T23:36:22.098Z,94.62
2022-12-04T23:38:50.585Z,94.53
2022-12-04T23:41:20.638Z,94.24
2022-12-04T23:43:49.448Z,94.24
2022-12-04T23:46:20.526Z,94.42
2022-12-04T23:48:48.729Z,94.51
2022-12-04T23:51:18.056Z,94.44
2022-12-04T23:53:47.517Z,94.58
2022-12-04T23:56:16.064Z,94.53
2022-12-04T23:58:44.668Z,94.55
